sensor_id;sensor_type;location;lat;lon;timestamp;temperature;humidity
10386;DHT22;34307;51.332;12.334;2022-07-22T00:01:55;21.40;99.90
10386;DHT22;34307;51.332;12.334;2022-07-22T00:04:24;21.40;99.90
10386;DHT22;34307;51.332;12.334;2022-07-22T00:06:52;21.40;99.90
10386;DHT22;34307;51.332;12.334;2022-07-22T00:09:20;21.40;99.90
10386;DHT22;34307;51.332;12.334;2022-07-22T00:11:49;21.30;99.90
10386;DHT22;34307;51.332;12.334;2022-07-22T00:14:18;21.30;99.90
10386;DHT22;34307;51.332;12.334;2022-07-22T00:16:47;21.20;99.90
10386;DHT22;34307;51.332;12.334;2022-07-22T00:19:15;21.20;99.90
10386;DHT22;34307;51.332;12.334;2022-07-22T00:21:44;21.20;99.90
10386;DHT22;34307;51.332;12.334;2022-07-22T00:24:12;21.10;99.90
10386;DHT22;34307;51.332;12.334;2022-07-22T00:26:40;21.10;99.90
10386;DHT22;34307;51.332;12.334;2022-07-22T00:29:08;21.20;99.90
10386;DHT22;34307;51.332;12.334;2022-07-22T00:31:38;21.10;99.90
10386;DHT22;34307;51.332;12.334;2022-07-22T00:34:06;21.10;99.90
10386;DHT22;34307;51.332;12.334;2022-07-22T00:36:34;21.10;99.90
10386;DHT22;34307;51.332;12.334;2022-07-22T00:39:03;21.10;99.90
10386;DHT22;34307;51.332;12.334;2022-07-22T00:41:31;21.10;99.90
10386;DHT22;34307;51.332;12.334;2022-07-22T00:44:06;21.10;99.90
10386;DHT22;34307;51.332;12.334;2022-07-22T00:46:39;21.00;99.90
10386;DHT22;34307;51.332;12.334;2022-07-22T00:49:08;21.00;99.90
10386;DHT22;34307;51.332;12.334;2022-07-22T00:51:37;21.00;99.90
10386;DHT22;34307;51.332;12.334;2022-07-22T00:54:06;21.00;99.90
10386;DHT22;34307;51.332;12.334;2022-07-22T00:56:35;20.90;99.90
10386;DHT22;34307;51.332;12.334;2022-07-22T00:59:07;20.80;99.90
10386;DHT22;34307;51.332;12.334;2022-07-22T01:01:38;20.80;99.90
10386;DHT22;34307;51.332;12.334;2022-07-22T01:04:07;20.80;99.90
10386;DHT22;34307;51.332;12.334;2022-07-22T01:06:35;20.70;99.90
10386;DHT22;34307;51.332;12.334;2022-07-22T01:09:04;20.60;99.90
10386;DHT22;34307;51.332;12.334;2022-07-22T01:11:32;20.60;99.90
10386;DHT22;34307;51.332;12.334;2022-07-22T01:14:00;20.60;99.90
10386;DHT22;34307;51.332;12.334;2022-07-22T01:16:29;20.50;99.90
10386;DHT22;34307;51.332;12.334;2022-07-22T01:18:59;20.40;99.90
10386;DHT22;34307;51.332;12.334;2022-07-22T01:21:29;20.50;99.90
10386;DHT22;34307;51.332;12.334;2022-07-22T01:23:57;20.50;99.90
10386;DHT22;34307;51.332;12.334;2022-07-22T01:26:29;20.50;99.90
10386;DHT22;34307;51.332;12.334;2022-07-22T01:28:57;20.50;99.90
10386;DHT22;34307;51.332;12.334;2022-07-22T01:31:26;20.40;99.90
10386;DHT22;34307;51.332;12.334;2022-07-22T01:33:55;20.50;99.90
10386;DHT22;34307;51.332;12.334;2022-07-22T01:36:23;20.50;99.90
10386;DHT22;34307;51.332;12.334;2022-07-22T01:38:53;20.60;99.90
10386;DHT22;34307;51.332;12.334;2022-07-22T01:41:21;20.40;99.90
10386;DHT22;34307;51.332;12.334;2022-07-22T01:43:49;20.50;99.90
10386;DHT22;34307;51.332;12.334;2022-07-22T01:46:18;20.40;99.90
10386;DHT22;34307;51.332;12.334;2022-07-22T01:48:46;20.30;99.90
10386;DHT22;34307;51.332;12.334;2022-07-22T01:51:14;20.30;99.90
10386;DHT22;34307;51.332;12.334;2022-07-22T01:53:43;20.30;99.90
10386;DHT22;34307;51.332;12.334;2022-07-22T01:56:12;20.10;99.90
10386;DHT22;34307;51.332;12.334;2022-07-22T01:58:41;20.10;99.90
10386;DHT22;34307;51.332;12.334;2022-07-22T02:01:09;20.10;99.90
10386;DHT22;34307;51.332;12.334;2022-07-22T02:03:37;20.00;99.90
10386;DHT22;34307;51.332;12.334;2022-07-22T02:06:06;20.00;99.90
10386;DHT22;34307;51.332;12.334;2022-07-22T02:08:34;20.00;99.90
10386;DHT22;34307;51.332;12.334;2022-07-22T02:11:03;19.80;99.90
10386;DHT22;34307;51.332;12.334;2022-07-22T02:13:33;19.80;99.90
10386;DHT22;34307;51.332;12.334;2022-07-22T02:16:01;19.80;99.90
10386;DHT22;34307;51.332;12.334;2022-07-22T02:18:29;19.80;99.90
10386;DHT22;34307;51.332;12.334;2022-07-22T02:20:58;19.70;99.90
10386;DHT22;34307;51.332;12.334;2022-07-22T02:23:27;19.70;99.90
10386;DHT22;34307;51.332;12.334;2022-07-22T02:25:55;19.70;99.90
10386;DHT22;34307;51.332;12.334;2022-07-22T02:28:23;19.70;99.90
10386;DHT22;34307;51.332;12.334;2022-07-22T02:30:52;19.60;99.90
10386;DHT22;34307;51.332;12.334;2022-07-22T02:33:20;19.60;99.90
10386;DHT22;34307;51.332;12.334;2022-07-22T02:35:49;19.50;99.90
10386;DHT22;34307;51.332;12.334;2022-07-22T02:38:18;19.40;99.90
10386;DHT22;34307;51.332;12.334;2022-07-22T02:40:46;19.40;99.90
10386;DHT22;34307;51.332;12.334;2022-07-22T02:43:14;19.40;99.90
10386;DHT22;34307;51.332;12.334;2022-07-22T02:45:42;19.40;99.90
10386;DHT22;34307;51.332;12.334;2022-07-22T02:48:12;19.30;99.90
10386;DHT22;34307;51.332;12.334;2022-07-22T02:50:45;19.20;99.90
10386;DHT22;34307;51.332;12.334;2022-07-22T02:53:13;19.10;99.90
10386;DHT22;34307;51.332;12.334;2022-07-22T02:55:41;19.10;99.90
10386;DHT22;34307;51.332;12.334;2022-07-22T02:58:10;19.20;99.90
10386;DHT22;34307;51.332;12.334;2022-07-22T03:00:38;19.20;99.90
10386;DHT22;34307;51.332;12.334;2022-07-22T03:03:07;19.10;99.90
10386;DHT22;34307;51.332;12.334;2022-07-22T03:05:36;19.00;99.90
10386;DHT22;34307;51.332;12.334;2022-07-22T03:08:04;19.00;99.90
10386;DHT22;34307;51.332;12.334;2022-07-22T03:10:32;18.90;99.90
10386;DHT22;34307;51.332;12.334;2022-07-22T03:13:01;18.90;99.90
10386;DHT22;34307;51.332;12.334;2022-07-22T03:15:29;19.00;99.90
10386;DHT22;34307;51.332;12.334;2022-07-22T03:17:57;19.00;99.90
10386;DHT22;34307;51.332;12.334;2022-07-22T03:20:25;18.90;99.90
10386;DHT22;34307;51.332;12.334;2022-07-22T03:22:54;19.00;99.90
10386;DHT22;34307;51.332;12.334;2022-07-22T03:25:22;18.90;99.90
10386;DHT22;34307;51.332;12.334;2022-07-22T03:27:50;19.00;99.90
10386;DHT22;34307;51.332;12.334;2022-07-22T03:30:19;19.00;99.90
10386;DHT22;34307;51.332;12.334;2022-07-22T03:32:47;19.00;99.90
10386;DHT22;34307;51.332;12.334;2022-07-22T03:35:17;19.00;99.90
10386;DHT22;34307;51.332;12.334;2022-07-22T03:37:46;19.00;99.90
10386;DHT22;34307;51.332;12.334;2022-07-22T03:40:15;18.90;99.90
10386;DHT22;34307;51.332;12.334;2022-07-22T03:42:43;18.90;99.90
10386;DHT22;34307;51.332;12.334;2022-07-22T03:45:12;18.90;99.90
10386;DHT22;34307;51.332;12.334;2022-07-22T03:47:41;18.90;99.90
10386;DHT22;34307;51.332;12.334;2022-07-22T03:50:09;19.00;99.90
10386;DHT22;34307;51.332;12.334;2022-07-22T03:52:37;19.00;99.90
10386;DHT22;34307;51.332;12.334;2022-07-22T03:55:06;19.00;99.90
10386;DHT22;34307;51.332;12.334;2022-07-22T03:57:35;19.00;99.90
10386;DHT22;34307;51.332;12.334;2022-07-22T04:00:05;19.10;99.90
10386;DHT22;34307;51.332;12.334;2022-07-22T04:02:33;19.10;99.90
10386;DHT22;34307;51.332;12.334;2022-07-22T04:05:02;19.10;99.90
10386;DHT22;34307;51.332;12.334;2022-07-22T04:07:31;19.20;99.90
10386;DHT22;34307;51.332;12.334;2022-07-22T04:09:59;19.20;99.90
10386;DHT22;34307;51.332;12.334;2022-07-22T04:12:33;19.30;99.90
10386;DHT22;34307;51.332;12.334;2022-07-22T04:15:05;19.30;99.90
10386;DHT22;34307;51.332;12.334;2022-07-22T04:17:33;19.30;99.90
10386;DHT22;34307;51.332;12.334;2022-07-22T04:20:03;19.30;99.90
10386;DHT22;34307;51.332;12.334;2022-07-22T04:22:32;19.30;99.90
10386;DHT22;34307;51.332;12.334;2022-07-22T04:25:00;19.30;99.90
10386;DHT22;34307;51.332;12.334;2022-07-22T04:27:28;19.40;99.90
10386;DHT22;34307;51.332;12.334;2022-07-22T04:29:57;19.50;99.90
10386;DHT22;34307;51.332;12.334;2022-07-22T04:32:28;19.60;99.90
10386;DHT22;34307;51.332;12.334;2022-07-22T04:34:56;19.60;99.90
10386;DHT22;34307;51.332;12.334;2022-07-22T04:37:24;19.60;99.90
10386;DHT22;34307;51.332;12.334;2022-07-22T04:39:52;19.60;99.90
10386;DHT22;34307;51.332;12.334;2022-07-22T04:42:21;19.50;99.90
10386;DHT22;34307;51.332;12.334;2022-07-22T04:44:49;19.50;99.90
10386;DHT22;34307;51.332;12.334;2022-07-22T04:47:17;19.40;99.90
10386;DHT22;34307;51.332;12.334;2022-07-22T04:49:47;19.50;99.90
10386;DHT22;34307;51.332;12.334;2022-07-22T04:52:15;19.60;99.90
10386;DHT22;34307;51.332;12.334;2022-07-22T04:54:44;19.70;99.90
10386;DHT22;34307;51.332;12.334;2022-07-22T04:57:12;19.80;99.90
10386;DHT22;34307;51.332;12.334;2022-07-22T04:59:40;19.80;99.90
10386;DHT22;34307;51.332;12.334;2022-07-22T05:02:08;19.80;99.90
10386;DHT22;34307;51.332;12.334;2022-07-22T05:04:36;19.70;99.90
10386;DHT22;34307;51.332;12.334;2022-07-22T05:07:06;19.80;99.90
10386;DHT22;34307;51.332;12.334;2022-07-22T05:09:36;19.90;99.90
10386;DHT22;34307;51.332;12.334;2022-07-22T05:12:04;20.00;99.90
10386;DHT22;34307;51.332;12.334;2022-07-22T05:14:32;20.10;99.90
10386;DHT22;34307;51.332;12.334;2022-07-22T05:17:00;20.10;99.90
10386;DHT22;34307;51.332;12.334;2022-07-22T05:19:29;20.20;99.90
10386;DHT22;34307;51.332;12.334;2022-07-22T05:21:57;20.30;99.90
10386;DHT22;34307;51.332;12.334;2022-07-22T05:24:26;20.30;99.90
10386;DHT22;34307;51.332;12.334;2022-07-22T05:26:54;20.30;99.90
10386;DHT22;34307;51.332;12.334;2022-07-22T05:29:23;20.30;99.90
10386;DHT22;34307;51.332;12.334;2022-07-22T05:31:51;20.10;99.90
10386;DHT22;34307;51.332;12.334;2022-07-22T05:34:20;20.20;99.90
10386;DHT22;34307;51.332;12.334;2022-07-22T05:36:48;20.10;99.90
10386;DHT22;34307;51.332;12.334;2022-07-22T05:39:16;20.20;99.90
10386;DHT22;34307;51.332;12.334;2022-07-22T05:41:45;20.40;99.90
10386;DHT22;34307;51.332;12.334;2022-07-22T05:44:19;20.50;99.90
10386;DHT22;34307;51.332;12.334;2022-07-22T05:46:47;20.60;99.90
10386;DHT22;34307;51.332;12.334;2022-07-22T05:49:16;20.50;99.90
10386;DHT22;34307;51.332;12.334;2022-07-22T05:51:44;20.60;99.90
10386;DHT22;34307;51.332;12.334;2022-07-22T05:54:33;20.70;99.90
10386;DHT22;34307;51.332;12.334;2022-07-22T05:57:02;20.40;99.90
10386;DHT22;34307;51.332;12.334;2022-07-22T05:59:30;20.40;99.90
10386;DHT22;34307;51.332;12.334;2022-07-22T06:01:58;20.40;99.90
10386;DHT22;34307;51.332;12.334;2022-07-22T06:04:27;20.40;99.90
10386;DHT22;34307;51.332;12.334;2022-07-22T06:06:55;20.40;99.90
10386;DHT22;34307;51.332;12.334;2022-07-22T06:09:23;20.50;99.90
10386;DHT22;34307;51.332;12.334;2022-07-22T06:11:51;20.60;99.90
10386;DHT22;34307;51.332;12.334;2022-07-22T06:14:21;20.70;99.90
10386;DHT22;34307;51.332;12.334;2022-07-22T06:16:49;21.00;99.90
10386;DHT22;34307;51.332;12.334;2022-07-22T06:19:17;21.00;99.90
10386;DHT22;34307;51.332;12.334;2022-07-22T06:21:45;21.30;99.90
10386;DHT22;34307;51.332;12.334;2022-07-22T06:24:14;21.30;99.90
10386;DHT22;34307;51.332;12.334;2022-07-22T06:26:42;21.50;99.90
10386;DHT22;34307;51.332;12.334;2022-07-22T06:29:11;21.60;99.90
10386;DHT22;34307;51.332;12.334;2022-07-22T06:31:40;21.50;99.90
10386;DHT22;34307;51.332;12.334;2022-07-22T06:34:08;21.60;99.90
10386;DHT22;34307;51.332;12.334;2022-07-22T06:36:36;21.70;99.90
10386;DHT22;34307;51.332;12.334;2022-07-22T06:39:04;21.70;99.90
10386;DHT22;34307;51.332;12.334;2022-07-22T06:41:32;21.80;99.90
10386;DHT22;34307;51.332;12.334;2022-07-22T06:44:01;21.70;99.90
10386;DHT22;34307;51.332;12.334;2022-07-22T06:46:29;21.40;99.90
10386;DHT22;34307;51.332;12.334;2022-07-22T06:48:58;21.30;99.90
10386;DHT22;34307;51.332;12.334;2022-07-22T06:51:26;21.40;99.90
10386;DHT22;34307;51.332;12.334;2022-07-22T06:53:55;21.40;99.90
10386;DHT22;34307;51.332;12.334;2022-07-22T06:56:23;21.40;99.90
10386;DHT22;34307;51.332;12.334;2022-07-22T06:58:51;21.40;99.90
10386;DHT22;34307;51.332;12.334;2022-07-22T07:01:20;21.40;99.90
10386;DHT22;34307;51.332;12.334;2022-07-22T07:03:48;21.50;99.90
10386;DHT22;34307;51.332;12.334;2022-07-22T07:06:18;21.50;99.90
10386;DHT22;34307;51.332;12.334;2022-07-22T07:08:46;21.50;99.90
10386;DHT22;34307;51.332;12.334;2022-07-22T07:11:15;21.70;99.90
10386;DHT22;34307;51.332;12.334;2022-07-22T07:13:43;21.90;99.90
10386;DHT22;34307;51.332;12.334;2022-07-22T07:16:12;22.00;99.90
10386;DHT22;34307;51.332;12.334;2022-07-22T07:18:40;22.10;99.90
10386;DHT22;34307;51.332;12.334;2022-07-22T07:21:08;22.10;99.90
10386;DHT22;34307;51.332;12.334;2022-07-22T07:23:38;22.50;99.90
10386;DHT22;34307;51.332;12.334;2022-07-22T07:26:07;22.60;96.20
10386;DHT22;34307;51.332;12.334;2022-07-22T07:28:35;22.40;97.40
10386;DHT22;34307;51.332;12.334;2022-07-22T07:31:03;22.50;97.80
10386;DHT22;34307;51.332;12.334;2022-07-22T07:33:31;22.30;98.90
10386;DHT22;34307;51.332;12.334;2022-07-22T07:36:00;22.40;97.00
10386;DHT22;34307;51.332;12.334;2022-07-22T07:38:28;22.50;97.50
10386;DHT22;34307;51.332;12.334;2022-07-22T07:40:58;22.40;97.10
10386;DHT22;34307;51.332;12.334;2022-07-22T07:43:26;22.50;96.90
10386;DHT22;34307;51.332;12.334;2022-07-22T07:45:54;22.60;97.80
10386;DHT22;34307;51.332;12.334;2022-07-22T07:48:23;22.70;95.40
10386;DHT22;34307;51.332;12.334;2022-07-22T07:50:51;22.60;96.50
10386;DHT22;34307;51.332;12.334;2022-07-22T07:53:20;22.50;96.80
10386;DHT22;34307;51.332;12.334;2022-07-22T07:55:48;22.70;93.40
10386;DHT22;34307;51.332;12.334;2022-07-22T07:58:18;22.90;92.90
10386;DHT22;34307;51.332;12.334;2022-07-22T08:00:47;22.90;92.30
10386;DHT22;34307;51.332;12.334;2022-07-22T08:03:16;22.70;92.60
10386;DHT22;34307;51.332;12.334;2022-07-22T08:05:44;22.70;92.10
10386;DHT22;34307;51.332;12.334;2022-07-22T08:08:12;22.90;91.90
10386;DHT22;34307;51.332;12.334;2022-07-22T08:10:43;22.70;92.40
10386;DHT22;34307;51.332;12.334;2022-07-22T08:13:25;22.70;92.50
10386;DHT22;34307;51.332;12.334;2022-07-22T08:15:53;23.10;90.90
10386;DHT22;34307;51.332;12.334;2022-07-22T08:18:22;23.50;86.20
10386;DHT22;34307;51.332;12.334;2022-07-22T08:20:50;23.90;80.90
10386;DHT22;34307;51.332;12.334;2022-07-22T08:23:18;24.00;77.20
10386;DHT22;34307;51.332;12.334;2022-07-22T08:25:46;23.60;81.80
10386;DHT22;34307;51.332;12.334;2022-07-22T08:28:14;23.30;80.90
10386;DHT22;34307;51.332;12.334;2022-07-22T08:30:44;23.10;82.60
10386;DHT22;34307;51.332;12.334;2022-07-22T08:33:12;23.80;77.40
10386;DHT22;34307;51.332;12.334;2022-07-22T08:35:40;24.30;73.10
10386;DHT22;34307;51.332;12.334;2022-07-22T08:38:08;24.60;70.80
10386;DHT22;34307;51.332;12.334;2022-07-22T08:40:36;25.00;67.60
10386;DHT22;34307;51.332;12.334;2022-07-22T08:43:05;24.80;66.60
10386;DHT22;34307;51.332;12.334;2022-07-22T08:45:33;24.10;69.80
10386;DHT22;34307;51.332;12.334;2022-07-22T08:48:03;24.10;73.20
10386;DHT22;34307;51.332;12.334;2022-07-22T08:50:34;24.20;70.90
10386;DHT22;34307;51.332;12.334;2022-07-22T08:53:02;24.10;69.80
10386;DHT22;34307;51.332;12.334;2022-07-22T08:55:32;24.40;68.10
10386;DHT22;34307;51.332;12.334;2022-07-22T08:58:02;24.30;67.10
10386;DHT22;34307;51.332;12.334;2022-07-22T09:00:46;24.40;66.30
10386;DHT22;34307;51.332;12.334;2022-07-22T09:03:20;25.20;63.80
10386;DHT22;34307;51.332;12.334;2022-07-22T09:05:50;25.70;59.80
10386;DHT22;34307;51.332;12.334;2022-07-22T09:08:19;25.70;58.50
10386;DHT22;34307;51.332;12.334;2022-07-22T09:10:48;25.50;58.60
10386;DHT22;34307;51.332;12.334;2022-07-22T09:13:16;25.00;61.20
10386;DHT22;34307;51.332;12.334;2022-07-22T09:15:50;24.70;61.60
10386;DHT22;34307;51.332;12.334;2022-07-22T09:18:19;24.40;64.80
10386;DHT22;34307;51.332;12.334;2022-07-22T09:20:47;24.40;65.50
10386;DHT22;34307;51.332;12.334;2022-07-22T09:23:18;24.30;66.90
10386;DHT22;34307;51.332;12.334;2022-07-22T09:25:49;24.40;66.60
10386;DHT22;34307;51.332;12.334;2022-07-22T09:28:18;24.40;66.60
10386;DHT22;34307;51.332;12.334;2022-07-22T09:30:51;24.40;67.60
10386;DHT22;34307;51.332;12.334;2022-07-22T09:33:23;24.70;65.90
10386;DHT22;34307;51.332;12.334;2022-07-22T09:35:52;25.20;62.80
10386;DHT22;34307;51.332;12.334;2022-07-22T09:38:27;24.60;66.00
10386;DHT22;34307;51.332;12.334;2022-07-22T09:40:56;24.80;64.90
10386;DHT22;34307;51.332;12.334;2022-07-22T09:43:26;24.70;64.30
10386;DHT22;34307;51.332;12.334;2022-07-22T09:45:59;24.50;65.20
10386;DHT22;34307;51.332;12.334;2022-07-22T09:48:29;24.20;67.10
10386;DHT22;34307;51.332;12.334;2022-07-22T09:50:57;24.40;66.60
10386;DHT22;34307;51.332;12.334;2022-07-22T09:53:27;24.40;65.60
10386;DHT22;34307;51.332;12.334;2022-07-22T09:55:56;24.40;66.70
10386;DHT22;34307;51.332;12.334;2022-07-22T09:58:25;24.70;65.90
10386;DHT22;34307;51.332;12.334;2022-07-22T10:00:54;24.80;63.60
10386;DHT22;34307;51.332;12.334;2022-07-22T10:03:26;25.10;62.00
10386;DHT22;34307;51.332;12.334;2022-07-22T10:05:57;24.60;65.30
10386;DHT22;34307;51.332;12.334;2022-07-22T10:08:31;24.80;65.40
10386;DHT22;34307;51.332;12.334;2022-07-22T10:11:02;25.20;62.40
10386;DHT22;34307;51.332;12.334;2022-07-22T10:13:31;25.50;61.50
10386;DHT22;34307;51.332;12.334;2022-07-22T10:16:01;25.40;62.20
10386;DHT22;34307;51.332;12.334;2022-07-22T10:18:30;26.20;58.80
10386;DHT22;34307;51.332;12.334;2022-07-22T10:21:05;26.00;58.00
10386;DHT22;34307;51.332;12.334;2022-07-22T10:23:34;26.50;56.20
10386;DHT22;34307;51.332;12.334;2022-07-22T10:26:03;26.20;56.00
10386;DHT22;34307;51.332;12.334;2022-07-22T10:28:32;26.20;55.40
10386;DHT22;34307;51.332;12.334;2022-07-22T10:31:20;25.40;60.90
10386;DHT22;34307;51.332;12.334;2022-07-22T10:33:51;25.00;66.20
10386;DHT22;34307;51.332;12.334;2022-07-22T10:36:32;24.60;71.10
10386;DHT22;34307;51.332;12.334;2022-07-22T10:39:06;24.30;75.80
10386;DHT22;34307;51.332;12.334;2022-07-22T10:41:36;24.30;75.90
10386;DHT22;34307;51.332;12.334;2022-07-22T10:44:05;24.90;75.20
10386;DHT22;34307;51.332;12.334;2022-07-22T10:46:50;25.30;69.00
10386;DHT22;34307;51.332;12.334;2022-07-22T10:49:21;24.60;72.20
10386;DHT22;34307;51.332;12.334;2022-07-22T10:52:18;24.30;71.90
10386;DHT22;34307;51.332;12.334;2022-07-22T10:55:16;23.80;80.80
10386;DHT22;34307;51.332;12.334;2022-07-22T10:57:45;24.30;79.10
10386;DHT22;34307;51.332;12.334;2022-07-22T11:00:13;24.40;76.10
10386;DHT22;34307;51.332;12.334;2022-07-22T11:02:41;24.50;77.00
10386;DHT22;34307;51.332;12.334;2022-07-22T11:05:10;24.80;73.50
10386;DHT22;34307;51.332;12.334;2022-07-22T11:07:44;24.90;73.30
10386;DHT22;34307;51.332;12.334;2022-07-22T11:10:14;26.00;69.20
10386;DHT22;34307;51.332;12.334;2022-07-22T11:12:47;26.90;62.80
10386;DHT22;34307;51.332;12.334;2022-07-22T11:15:17;27.10;59.00
10386;DHT22;34307;51.332;12.334;2022-07-22T11:17:46;27.20;57.50
10386;DHT22;34307;51.332;12.334;2022-07-22T11:20:14;26.90;58.30
10386;DHT22;34307;51.332;12.334;2022-07-22T11:22:46;26.10;60.60
10386;DHT22;34307;51.332;12.334;2022-07-22T11:25:16;26.00;62.80
10386;DHT22;34307;51.332;12.334;2022-07-22T11:27:50;25.90;61.80
10386;DHT22;34307;51.332;12.334;2022-07-22T11:30:21;26.20;59.40
10386;DHT22;34307;51.332;12.334;2022-07-22T11:33:40;26.70;58.10
10386;DHT22;34307;51.332;12.334;2022-07-22T11:36:50;26.90;56.30
10386;DHT22;34307;51.332;12.334;2022-07-22T11:39:33;27.60;53.60
10386;DHT22;34307;51.332;12.334;2022-07-22T11:42:25;28.20;50.20
10386;DHT22;34307;51.332;12.334;2022-07-22T11:44:59;27.60;49.70
10386;DHT22;34307;51.332;12.334;2022-07-22T11:47:28;27.10;53.90
10386;DHT22;34307;51.332;12.334;2022-07-22T11:49:56;27.20;52.70
10386;DHT22;34307;51.332;12.334;2022-07-22T11:52:24;27.20;49.40
10386;DHT22;34307;51.332;12.334;2022-07-22T11:54:56;26.80;52.30
10386;DHT22;34307;51.332;12.334;2022-07-22T11:57:30;27.10;53.00
10386;DHT22;34307;51.332;12.334;2022-07-22T12:00:11;27.30;51.40
10386;DHT22;34307;51.332;12.334;2022-07-22T12:03:01;27.70;51.10
10386;DHT22;34307;51.332;12.334;2022-07-22T12:05:59;26.80;53.50
10386;DHT22;34307;51.332;12.334;2022-07-22T12:09:32;26.90;54.20
10386;DHT22;34307;51.332;12.334;2022-07-22T12:12:41;26.80;55.70
10386;DHT22;34307;51.332;12.334;2022-07-22T12:15:18;28.50;52.00
10386;DHT22;34307;51.332;12.334;2022-07-22T12:18:17;28.30;44.80
10386;DHT22;34307;51.332;12.334;2022-07-22T12:20:47;27.70;46.90
10386;DHT22;34307;51.332;12.334;2022-07-22T12:23:20;27.60;48.40
10386;DHT22;34307;51.332;12.334;2022-07-22T12:25:56;27.70;49.10
10386;DHT22;34307;51.332;12.334;2022-07-22T12:28:27;28.40;44.10
10386;DHT22;34307;51.332;12.334;2022-07-22T12:30:56;27.40;48.20
10386;DHT22;34307;51.332;12.334;2022-07-22T12:33:24;27.40;48.50
10386;DHT22;34307;51.332;12.334;2022-07-22T12:36:00;28.20;46.10
10386;DHT22;34307;51.332;12.334;2022-07-22T12:38:29;28.60;42.50
10386;DHT22;34307;51.332;12.334;2022-07-22T12:41:21;28.90;40.10
10386;DHT22;34307;51.332;12.334;2022-07-22T12:43:51;27.90;41.40
10386;DHT22;34307;51.332;12.334;2022-07-22T12:46:20;27.90;45.50
10386;DHT22;34307;51.332;12.334;2022-07-22T12:48:50;28.40;45.20
10386;DHT22;34307;51.332;12.334;2022-07-22T12:51:19;28.80;40.80
10386;DHT22;34307;51.332;12.334;2022-07-22T12:53:49;29.20;35.80
10386;DHT22;34307;51.332;12.334;2022-07-22T12:56:21;28.20;41.00
10386;DHT22;34307;51.332;12.334;2022-07-22T12:58:51;28.20;40.90
10386;DHT22;34307;51.332;12.334;2022-07-22T13:01:19;29.10;38.40
10386;DHT22;34307;51.332;12.334;2022-07-22T13:03:47;28.70;33.90
10386;DHT22;34307;51.332;12.334;2022-07-22T13:06:18;28.10;39.60
10386;DHT22;34307;51.332;12.334;2022-07-22T13:08:46;28.80;34.90
10386;DHT22;34307;51.332;12.334;2022-07-22T13:11:15;28.80;34.20
10386;DHT22;34307;51.332;12.334;2022-07-22T13:13:43;28.50;34.30
10386;DHT22;34307;51.332;12.334;2022-07-22T13:16:14;28.50;35.60
10386;DHT22;34307;51.332;12.334;2022-07-22T13:18:42;28.70;34.70
10386;DHT22;34307;51.332;12.334;2022-07-22T13:21:15;29.30;29.60
10386;DHT22;34307;51.332;12.334;2022-07-22T15:09:36;34.50;1.00
10386;DHT22;34307;51.332;12.334;2022-07-22T15:12:05;34.00;1.00
10386;DHT22;34307;51.332;12.334;2022-07-22T15:15:13;33.70;1.00
10386;DHT22;34307;51.332;12.334;2022-07-22T15:17:57;34.90;1.00
10386;DHT22;34307;51.332;12.334;2022-07-22T15:20:25;35.10;1.00
10386;DHT22;34307;51.332;12.334;2022-07-22T15:23:12;34.90;1.00
10386;DHT22;34307;51.332;12.334;2022-07-22T15:25:41;35.00;1.00
10386;DHT22;34307;51.332;12.334;2022-07-22T15:28:13;35.50;1.00
10386;DHT22;34307;51.332;12.334;2022-07-22T15:30:59;34.80;1.00
10386;DHT22;34307;51.332;12.334;2022-07-22T15:33:27;34.20;1.00
10386;DHT22;34307;51.332;12.334;2022-07-22T15:36:06;34.10;1.00
10386;DHT22;34307;51.332;12.334;2022-07-22T15:38:35;35.10;1.00
10386;DHT22;34307;51.332;12.334;2022-07-22T15:41:05;36.10;1.00
10386;DHT22;34307;51.332;12.334;2022-07-22T15:43:34;36.30;1.00
10386;DHT22;34307;51.332;12.334;2022-07-22T15:46:07;36.10;1.00
10386;DHT22;34307;51.332;12.334;2022-07-22T15:48:38;35.30;1.00
10386;DHT22;34307;51.332;12.334;2022-07-22T16:24:07;33.00;1.00
10386;DHT22;34307;51.332;12.334;2022-07-22T16:27:01;32.60;1.00
10386;DHT22;34307;51.332;12.334;2022-07-22T16:31:32;32.10;1.00
10386;DHT22;34307;51.332;12.334;2022-07-22T16:37:28;31.50;1.00
10386;DHT22;34307;51.332;12.334;2022-07-22T16:40:38;31.00;1.00
10386;DHT22;34307;51.332;12.334;2022-07-22T16:44:03;31.70;1.00
10386;DHT22;34307;51.332;12.334;2022-07-22T16:47:12;31.50;1.00
10386;DHT22;34307;51.332;12.334;2022-07-22T16:50:27;31.10;1.00
10386;DHT22;34307;51.332;12.334;2022-07-22T16:57:37;32.20;1.00
10386;DHT22;34307;51.332;12.334;2022-07-22T17:01:16;32.80;1.00
10386;DHT22;34307;51.332;12.334;2022-07-22T17:18:55;29.90;1.00
10386;DHT22;34307;51.332;12.334;2022-07-22T17:24:56;28.90;1.00
10386;DHT22;34307;51.332;12.334;2022-07-22T17:29:06;28.70;1.00
10386;DHT22;34307;51.332;12.334;2022-07-22T17:32:27;28.50;1.00
10386;DHT22;34307;51.332;12.334;2022-07-22T17:35:57;28.30;1.00
10386;DHT22;34307;51.332;12.334;2022-07-22T17:39:13;28.50;1.00
10386;DHT22;34307;51.332;12.334;2022-07-22T17:42:19;28.60;1.00
10386;DHT22;34307;51.332;12.334;2022-07-22T17:48:33;29.60;1.00
10386;DHT22;34307;51.332;12.334;2022-07-22T17:55:29;29.30;1.00
10386;DHT22;34307;51.332;12.334;2022-07-22T17:59:17;28.00;1.00
10386;DHT22;34307;51.332;12.334;2022-07-22T18:09:00;26.40;1.00
10386;DHT22;34307;51.332;12.334;2022-07-22T18:11:53;26.20;5.70
10386;DHT22;34307;51.332;12.334;2022-07-22T18:14:29;26.10;11.70
10386;DHT22;34307;51.332;12.334;2022-07-22T18:17:08;26.00;15.20
10386;DHT22;34307;51.332;12.334;2022-07-22T18:19:48;25.80;20.00
10386;DHT22;34307;51.332;12.334;2022-07-22T18:23:02;25.50;26.20
10386;DHT22;34307;51.332;12.334;2022-07-22T18:29:37;25.10;36.90
10386;DHT22;34307;51.332;12.334;2022-07-22T18:32:24;24.90;41.20
10386;DHT22;34307;51.332;12.334;2022-07-22T18:35:10;24.80;44.00
10386;DHT22;34307;51.332;12.334;2022-07-22T18:38:07;24.70;46.10
10386;DHT22;34307;51.332;12.334;2022-07-22T18:40:42;24.70;47.70
10386;DHT22;34307;51.332;12.334;2022-07-22T18:43:12;24.60;49.20
10386;DHT22;34307;51.332;12.334;2022-07-22T18:49:15;24.40;51.40
10386;DHT22;34307;51.332;12.334;2022-07-22T18:51:58;24.30;52.90
10386;DHT22;34307;51.332;12.334;2022-07-22T18:54:39;24.30;54.30
10386;DHT22;34307;51.332;12.334;2022-07-22T18:57:34;24.20;54.80
10386;DHT22;34307;51.332;12.334;2022-07-22T19:00:16;24.10;56.10
10386;DHT22;34307;51.332;12.334;2022-07-22T19:02:44;24.00;57.60
10386;DHT22;34307;51.332;12.334;2022-07-22T19:05:14;23.90;58.30